Time;durP1;ratioP1;P1;durP2;ratioP2;P2;SDS_P1;SDS_P2;PMS_P1;PMS_P2;Temp;Humidity;BMP_temperature;BMP_pressure;BME280_temperature;BME280_humidity;BME280_pressure;Samples;Min_cycle;Max_cycle;Signal;HPM_P1;HPM_P2
2022/02/26 00:01:26;;;;;;;3.72;2.50;;;5.40;99.90;;;;;;5059559;28;20261;-48
2022/02/26 00:03:54;;;;;;;6.25;3.13;;;5.40;99.90;;;;;;5059917;28;20278;-46
2022/02/26 00:06:21;;;;;;;2.90;1.75;;;5.40;99.90;;;;;;5057894;28;20199;-53
2022/02/26 00:08:48;;;;;;;5.10;3.13;;;5.30;99.90;;;;;;5059413;28;20288;-52
2022/02/26 00:11:15;;;;;;;9.35;3.05;;;5.30;99.90;;;;;;5059946;28;20218;-46
2022/02/26 00:13:42;;;;;;;2.97;2.67;;;5.40;99.90;;;;;;5059735;28;20203;-47
2022/02/26 00:16:09;;;;;;;5.30;2.72;;;5.40;99.90;;;;;;5059811;28;20211;-48
2022/02/26 00:18:39;;;;;;;6.20;2.78;;;5.40;99.90;;;;;;5059653;28;20199;-45
2022/02/26 00:21:06;;;;;;;9.45;3.40;;;5.60;99.90;;;;;;5059205;28;20266;-52
2022/02/26 00:23:33;;;;;;;4.80;2.67;;;5.50;99.90;;;;;;5059593;28;20207;-48
2022/02/26 00:26:00;;;;;;;8.45;3.03;;;5.50;99.90;;;;;;5059618;28;20211;-50
2022/02/26 00:28:33;;;;;;;5.28;2.35;;;5.30;99.90;;;;;;5059472;28;20481;-49
2022/02/26 00:31:00;;;;;;;3.65;2.35;;;5.20;99.90;;;;;;5059720;28;20248;-44
2022/02/26 00:33:28;;;;;;;9.32;4.97;;;5.00;99.90;;;;;;5060907;28;20199;-53
2022/02/26 00:35:59;;;;;;;2.17;1.98;;;4.90;99.90;;;;;;5058521;28;20511;-52
2022/02/26 00:38:27;;;;;;;2.42;1.83;;;4.90;99.90;;;;;;5059393;28;20202;-45
2022/02/26 00:40:55;;;;;;;2.80;1.80;;;4.90;99.90;;;;;;5058842;28;20599;-46
2022/02/26 00:43:22;;;;;;;3.50;2.13;;;4.80;99.90;;;;;;5057262;28;20202;-50
2022/02/26 00:45:50;;;;;;;4.70;3.13;;;4.80;99.90;;;;;;5058782;28;20227;-53
2022/02/26 00:48:17;;;;;;;2.45;2.25;;;4.90;99.90;;;;;;5059325;28;20202;-46
2022/02/26 00:50:47;;;;;;;6.35;3.25;;;5.00;99.90;;;;;;5058856;28;20617;-46
2022/02/26 00:53:14;;;;;;;6.22;2.50;;;5.10;99.90;;;;;;5059116;28;20236;-53
2022/02/26 00:55:41;;;;;;;4.30;2.42;;;5.20;99.90;;;;;;5058932;28;20498;-54
2022/02/26 00:58:09;;;;;;;8.63;4.38;;;5.20;99.90;;;;;;5059107;28;20203;-51
2022/02/26 01:00:36;;;;;;;2.20;2.00;;;5.20;99.90;;;;;;5058777;28;20226;-49
2022/02/26 01:03:03;;;;;;;6.43;3.70;;;5.30;99.90;;;;;;5058865;28;20272;-51
2022/02/26 01:05:31;;;;;;;2.75;2.10;;;5.20;99.90;;;;;;5059265;28;20256;-47
2022/02/26 01:07:57;;;;;;;4.18;3.20;;;5.10;99.90;;;;;;5058422;28;20258;-48
2022/02/26 01:10:29;;;;;;;4.03;2.47;;;5.20;99.90;;;;;;5059189;28;20266;-49
2022/02/26 01:12:56;;;;;;;2.97;2.50;;;5.20;99.90;;;;;;5058350;28;20277;-45
2022/02/26 01:15:23;;;;;;;3.38;3.13;;;4.90;99.90;;;;;;5058338;28;20199;-46
2022/02/26 01:17:50;;;;;;;3.78;3.20;;;4.70;99.90;;;;;;5057935;28;20225;-48
2022/02/26 01:20:17;;;;;;;3.67;2.83;;;4.60;99.90;;;;;;5058030;28;20206;-48
2022/02/26 01:22:45;;;;;;;7.47;2.72;;;4.50;99.90;;;;;;5058494;28;20249;-54
2022/02/26 01:25:12;;;;;;;6.47;3.15;;;4.50;99.90;;;;;;5041195;28;20280;-44
2022/02/26 01:27:39;;;;;;;8.05;4.22;;;4.30;99.90;;;;;;5058894;28;20320;-49
2022/02/26 01:30:07;;;;;;;4.63;3.70;;;4.20;99.90;;;;;;5058796;28;20199;-48
2022/02/26 01:32:35;;;;;;;8.18;3.70;;;4.10;99.90;;;;;;5057806;28;20230;-48
2022/02/26 01:35:03;;;;;;;4.30;3.20;;;4.10;99.90;;;;;;5058374;28;20206;-45
2022/02/26 01:37:30;;;;;;;4.53;3.22;;;4.00;99.90;;;;;;5058906;28;20212;-46
2022/02/26 01:39:57;;;;;;;3.80;3.45;;;4.10;99.90;;;;;;5058232;28;20248;-51
2022/02/26 01:42:25;;;;;;;6.50;3.55;;;4.30;99.90;;;;;;5058785;28;20231;-48
2022/02/26 01:44:53;;;;;;;6.30;4.20;;;4.40;99.90;;;;;;5058276;28;20229;-50
2022/02/26 01:47:23;;;;;;;4.15;3.10;;;4.60;99.90;;;;;;5058904;28;20226;-49
2022/02/26 01:49:50;;;;;;;8.57;3.88;;;4.50;99.90;;;;;;5058228;28;20393;-50
2022/02/26 01:52:19;;;;;;;8.73;4.70;;;4.40;99.90;;;;;;5058723;28;20238;-44
2022/02/26 01:54:46;;;;;;;5.82;4.45;;;4.30;99.90;;;;;;5059245;28;20255;-49
2022/02/26 01:57:14;;;;;;;4.00;3.40;;;4.30;99.90;;;;;;5062173;28;20281;-47
2022/02/26 01:59:42;;;;;;;3.88;3.58;;;4.30;99.90;;;;;;5063557;28;20195;-51
2022/02/26 02:02:10;;;;;;;7.05;3.97;;;4.30;99.90;;;;;;5058534;28;20227;-50
2022/02/26 02:04:38;;;;;;;5.22;4.05;;;4.30;99.90;;;;;;5058580;28;20210;-48
2022/02/26 02:07:05;;;;;;;7.32;4.68;;;4.40;99.90;;;;;;5058295;28;20260;-44
2022/02/26 02:09:32;;;;;;;7.72;4.80;;;4.40;99.90;;;;;;5055468;28;20210;-47
2022/02/26 02:12:00;;;;;;;6.70;5.13;;;4.20;99.90;;;;;;5057897;28;20227;-49
2022/02/26 02:14:27;;;;;;;8.20;5.63;;;4.20;99.90;;;;;;5058893;28;20446;-48
2022/02/26 02:16:55;;;;;;;9.27;5.10;;;4.10;99.90;;;;;;5058193;28;20199;-51
2022/02/26 02:19:25;;;;;;;7.40;5.25;;;4.10;99.90;;;;;;5055857;28;20249;-48
2022/02/26 02:21:52;;;;;;;10.15;5.63;;;4.10;99.90;;;;;;5057806;28;20259;-52
2022/02/26 02:24:19;;;;;;;7.55;6.65;;;4.00;99.90;;;;;;5058167;28;20213;-48
2022/02/26 02:26:48;;;;;;;7.88;7.05;;;3.80;99.90;;;;;;5058015;28;20263;-49
2022/02/26 02:29:15;;;;;;;7.05;5.70;;;3.80;99.90;;;;;;5058190;28;20416;-47
2022/02/26 02:31:42;;;;;;;7.68;5.35;;;3.80;99.90;;;;;;5058112;28;20532;-46
2022/02/26 02:34:09;;;;;;;8.98;5.63;;;3.90;99.90;;;;;;5055180;28;20199;-48
2022/02/26 02:36:44;;;;;;;7.18;6.03;;;4.20;99.90;;;;;;5058190;28;20511;-51
2022/02/26 02:39:12;;;;;;;8.23;7.43;;;4.20;99.90;;;;;;5056826;28;20545;-47
2022/02/26 02:41:41;;;;;;;8.05;6.13;;;4.10;99.90;;;;;;5058273;28;20222;-48
2022/02/26 02:44:13;;;;;;;11.70;7.43;;;4.00;99.90;;;;;;5059671;28;20203;-47
2022/02/26 02:46:41;;;;;;;7.80;6.25;;;4.00;99.90;;;;;;5061865;28;20455;-50
2022/02/26 02:49:10;;;;;;;10.30;6.88;;;4.00;99.90;;;;;;5061096;28;20225;-47
2022/02/26 02:51:38;;;;;;;10.30;7.70;;;4.10;99.90;;;;;;5061439;28;20540;-49
2022/02/26 02:54:06;;;;;;;11.73;7.30;;;4.00;99.90;;;;;;5061624;28;20203;-46
2022/02/26 02:56:33;;;;;;;8.70;7.30;;;4.00;99.90;;;;;;5059343;28;20206;-48
2022/02/26 02:59:01;;;;;;;13.65;8.13;;;4.00;99.90;;;;;;5062074;28;20429;-50
2022/02/26 03:01:28;;;;;;;13.85;8.10;;;4.10;99.90;;;;;;5060390;28;20235;-56
2022/02/26 03:03:56;;;;;;;21.80;9.13;;;4.10;99.90;;;;;;5069763;28;20202;-46
2022/02/26 03:06:26;;;;;;;14.05;6.95;;;4.20;99.90;;;;;;5063182;28;20230;-49
2022/02/26 03:08:53;;;;;;;9.32;6.82;;;4.20;99.90;;;;;;5061020;28;20238;-48
2022/02/26 03:11:21;;;;;;;12.63;8.38;;;4.30;99.90;;;;;;5060857;28;20256;-49
2022/02/26 03:13:48;;;;;;;13.50;7.70;;;4.10;99.90;;;;;;5061098;28;20199;-45
2022/02/26 03:16:16;;;;;;;13.25;7.47;;;4.00;99.90;;;;;;5061511;28;20244;-45
2022/02/26 03:18:44;;;;;;;11.18;8.13;;;4.00;99.90;;;;;;5061222;28;20200;-47
2022/02/26 03:21:11;;;;;;;11.13;7.70;;;4.10;99.90;;;;;;5059767;28;20261;-45
2022/02/26 03:23:38;;;;;;;9.07;6.82;;;4.20;99.90;;;;;;5060792;28;20209;-53
2022/02/26 03:26:05;;;;;;;11.77;7.60;;;4.20;99.90;;;;;;5060851;28;20271;-46
2022/02/26 03:28:35;;;;;;;8.23;6.50;;;4.20;99.90;;;;;;5060821;28;20226;-46
2022/02/26 03:31:03;;;;;;;12.10;7.45;;;4.10;99.90;;;;;;5060821;28;20257;-50
2022/02/26 03:33:30;;;;;;;8.80;6.60;;;4.10;99.90;;;;;;5060912;28;20261;-45
2022/02/26 03:35:58;;;;;;;10.40;6.20;;;4.00;99.90;;;;;;5060939;28;20207;-50
2022/02/26 03:38:25;;;;;;;7.47;6.15;;;4.10;99.90;;;;;;5060787;28;20205;-46
2022/02/26 03:40:52;;;;;;;7.57;5.72;;;4.10;99.90;;;;;;5060255;28;20229;-49
2022/02/26 03:43:20;;;;;;;11.88;6.68;;;4.20;99.90;;;;;;5060766;28;20203;-45
2022/02/26 03:45:47;;;;;;;8.20;6.63;;;4.20;99.90;;;;;;5060328;28;20555;-46
2022/02/26 03:48:15;;;;;;;8.48;6.68;;;4.20;99.90;;;;;;5060725;28;20202;-48
2022/02/26 03:50:43;;;;;;;6.60;5.90;;;4.20;99.90;;;;;;5060071;28;20229;-52
2022/02/26 03:53:10;;;;;;;8.48;5.28;;;4.30;99.90;;;;;;5058694;28;20524;-53
2022/02/26 03:55:39;;;;;;;10.95;5.82;;;4.30;99.90;;;;;;5059440;28;20195;-50
2022/02/26 03:58:06;;;;;;;10.35;8.70;;;4.30;99.90;;;;;;5060376;28;20211;-46
2022/02/26 04:00:34;;;;;;;12.32;6.70;;;4.10;99.90;;;;;;5060176;28;20598;-48
2022/02/26 04:03:01;;;;;;;9.80;7.38;;;4.10;99.90;;;;;;5059937;28;20538;-50
2022/02/26 04:05:28;;;;;;;10.52;6.43;;;3.90;99.90;;;;;;5059908;28;20233;-47
2022/02/26 04:07:57;;;;;;;7.38;5.30;;;3.80;99.90;;;;;;5059850;28;20198;-47
2022/02/26 04:10:24;;;;;;;7.72;6.60;;;3.80;99.90;;;;;;5057627;28;20432;-47
2022/02/26 04:12:52;;;;;;;7.35;6.45;;;3.90;99.90;;;;;;5059902;28;20202;-43
2022/02/26 04:15:20;;;;;;;10.95;6.35;;;4.10;99.90;;;;;;5060006;28;20626;-47
2022/02/26 04:17:47;;;;;;;7.40;6.35;;;4.30;99.90;;;;;;5059607;28;20210;-49
2022/02/26 04:20:15;;;;;;;9.27;6.57;;;4.40;99.90;;;;;;5059920;28;20527;-49
2022/02/26 04:22:42;;;;;;;8.82;6.90;;;4.30;99.90;;;;;;5059595;28;20226;-47
2022/02/26 04:25:10;;;;;;;7.25;5.78;;;4.30;99.90;;;;;;5057570;28;20207;-44
2022/02/26 04:27:38;;;;;;;6.90;5.00;;;4.00;99.90;;;;;;5059523;28;20245;-49
2022/02/26 04:30:08;;;;;;;9.40;6.18;;;4.00;99.90;;;;;;5059478;28;20198;-45
2022/02/26 04:32:40;;;;;;;7.97;6.68;;;3.90;99.90;;;;;;5041301;28;20233;-49
2022/02/26 04:35:10;;;;;;;13.23;6.63;;;3.80;99.90;;;;;;5060013;28;20207;-51
2022/02/26 04:37:37;;;;;;;10.85;6.93;;;3.90;99.90;;;;;;5059251;28;20550;-45
2022/02/26 04:40:07;;;;;;;9.57;7.00;;;3.80;99.90;;;;;;5059271;28;20217;-46
2022/02/26 04:42:34;;;;;;;11.18;8.13;;;3.70;99.90;;;;;;5062161;28;20219;-44
2022/02/26 04:45:01;;;;;;;10.05;7.75;;;3.60;99.90;;;;;;5059969;28;20245;-45
2022/02/26 04:47:29;;;;;;;8.10;7.30;;;3.50;99.90;;;;;;5060056;28;20238;-51
2022/02/26 04:49:56;;;;;;;9.50;7.82;;;3.30;99.90;;;;;;5058180;28;20205;-48
2022/02/26 04:52:23;;;;;;;19.70;9.95;;;3.30;99.90;;;;;;5056743;28;20213;-50
2022/02/26 04:54:50;;;;;;;9.00;6.97;;;3.10;99.90;;;;;;5059098;28;20198;-52
2022/02/26 04:57:17;;;;;;;11.20;8.70;;;2.90;99.90;;;;;;5059414;28;20206;-50
2022/02/26 04:59:45;;;;;;;10.77;7.93;;;2.80;99.90;;;;;;5058924;28;20205;-49
2022/02/26 05:02:12;;;;;;;11.50;8.50;;;2.70;99.90;;;;;;5059174;28;20229;-47
2022/02/26 05:04:39;;;;;;;9.60;7.47;;;2.60;99.90;;;;;;5059359;28;20669;-51
2022/02/26 05:07:07;;;;;;;11.55;7.93;;;2.50;99.90;;;;;;5058652;28;20225;-50
2022/02/26 05:09:34;;;;;;;18.40;10.65;;;2.60;99.90;;;;;;5058644;28;20398;-48
2022/02/26 05:12:02;;;;;;;11.18;8.75;;;2.70;99.90;;;;;;5058245;28;20285;-45
2022/02/26 05:14:29;;;;;;;13.93;9.15;;;2.80;99.90;;;;;;5064239;28;20228;-48
2022/02/26 05:16:57;;;;;;;15.15;9.82;;;2.80;99.90;;;;;;5047406;28;20201;-44
2022/02/26 05:19:25;;;;;;;19.38;11.20;;;2.90;99.90;;;;;;5057936;28;20205;-46
2022/02/26 05:21:52;;;;;;;18.92;11.35;;;2.80;99.90;;;;;;5058795;28;20227;-44
2022/02/26 05:24:19;;;;;;;14.40;11.02;;;2.90;99.90;;;;;;5058865;28;20240;-51
2022/02/26 05:26:47;;;;;;;14.40;9.38;;;3.00;99.90;;;;;;5058373;28;20264;-51
2022/02/26 05:29:14;;;;;;;18.90;10.40;;;3.10;99.90;;;;;;5058598;28;20213;-45
2022/02/26 05:31:42;;;;;;;16.05;9.73;;;3.20;99.90;;;;;;5058659;28;20262;-52
2022/02/26 05:34:09;;;;;;;18.75;10.52;;;3.10;99.90;;;;;;5058296;28;20212;-49
2022/02/26 05:36:37;;;;;;;13.23;9.70;;;3.10;99.90;;;;;;5058526;28;20223;-49
2022/02/26 05:39:05;;;;;;;15.85;9.73;;;3.00;99.90;;;;;;5058583;28;20565;-49
2022/02/26 05:41:32;;;;;;;13.13;9.27;;;2.90;99.90;;;;;;5058814;28;20221;-44
2022/02/26 05:44:01;;;;;;;16.63;10.18;;;3.00;99.90;;;;;;5058403;28;20206;-48
2022/02/26 05:46:29;;;;;;;20.15;10.65;;;2.90;99.90;;;;;;5058889;28;20232;-53
2022/02/26 05:48:56;;;;;;;13.20;10.30;;;3.10;99.90;;;;;;5057961;28;20399;-48
2022/02/26 05:51:24;;;;;;;17.23;8.93;;;3.10;99.90;;;;;;5055968;28;20216;-45
2022/02/26 05:53:51;;;;;;;17.35;9.20;;;3.00;99.90;;;;;;5058434;28;20212;-49
2022/02/26 05:56:18;;;;;;;12.30;8.90;;;3.10;99.90;;;;;;5058514;28;20266;-49
2022/02/26 05:58:46;;;;;;;15.13;9.45;;;3.20;99.90;;;;;;5058699;28;20224;-52
2022/02/26 06:01:15;;;;;;;17.88;10.52;;;3.30;99.90;;;;;;5055398;28;20232;-44
2022/02/26 06:03:43;;;;;;;15.63;8.38;;;3.50;99.90;;;;;;5058471;28;20807;-48
2022/02/26 06:06:10;;;;;;;12.68;8.32;;;3.50;99.90;;;;;;5057023;28;20786;-45
2022/02/26 06:08:37;;;;;;;17.55;9.88;;;3.60;99.90;;;;;;5059256;28;20253;-45
2022/02/26 06:11:05;;;;;;;10.13;8.77;;;3.70;99.90;;;;;;5059229;28;20234;-50
2022/02/26 06:13:32;;;;;;;12.80;7.72;;;3.70;99.90;;;;;;5059000;28;20206;-44
2022/02/26 06:16:00;;;;;;;17.02;10.00;;;3.70;99.90;;;;;;5058889;28;20691;-52
2022/02/26 06:18:29;;;;;;;13.02;8.48;;;3.80;99.90;;;;;;5060441;28;20215;-49
2022/02/26 06:20:56;;;;;;;13.90;9.07;;;4.10;99.90;;;;;;5061937;28;20547;-52
2022/02/26 06:23:24;;;;;;;17.02;11.15;;;4.10;99.90;;;;;;5062007;28;20201;-49
2022/02/26 06:25:51;;;;;;;12.75;8.77;;;3.90;99.90;;;;;;5061924;28;20528;-52
2022/02/26 06:28:18;;;;;;;9.13;7.78;;;3.90;99.90;;;;;;5061837;28;20264;-47
2022/02/26 06:30:46;;;;;;;8.50;7.00;;;3.90;99.90;;;;;;5061491;28;20222;-48
2022/02/26 06:33:14;;;;;;;10.38;7.13;;;3.90;99.90;;;;;;5061606;28;20201;-44
2022/02/26 06:35:45;;;;;;;11.30;8.20;;;3.90;99.90;;;;;;5061862;28;20207;-46
2022/02/26 06:38:13;;;;;;;8.70;6.55;;;3.90;99.90;;;;;;5061428;28;20199;-50
2022/02/26 06:40:40;;;;;;;7.82;6.65;;;4.00;99.90;;;;;;5061636;28;20216;-48
2022/02/26 06:43:08;;;;;;;8.02;5.82;;;4.00;99.90;;;;;;5061407;28;20195;-44
2022/02/26 06:45:35;;;;;;;8.80;6.05;;;4.10;99.90;;;;;;5062260;28;20264;-48
2022/02/26 06:48:03;;;;;;;6.45;4.70;;;4.10;99.90;;;;;;5061752;28;20190;-49
2022/02/26 06:50:31;;;;;;;5.82;4.45;;;4.10;99.90;;;;;;5061566;28;20205;-50
2022/02/26 06:52:58;;;;;;;6.30;5.10;;;4.20;99.90;;;;;;5061350;28;20427;-47
2022/02/26 06:55:25;;;;;;;8.27;4.70;;;4.30;99.90;;;;;;5058514;28;20199;-48
2022/02/26 06:57:52;;;;;;;4.30;3.55;;;4.40;99.90;;;;;;5061736;28;20203;-45
2022/02/26 07:00:19;;;;;;;7.28;4.45;;;4.50;99.90;;;;;;5061512;28;20215;-46
2022/02/26 07:02:46;;;;;;;4.93;4.18;;;4.40;99.90;;;;;;5059007;28;20202;-48
2022/02/26 07:05:14;;;;;;;5.50;4.38;;;4.50;99.90;;;;;;5061791;28;20261;-46
2022/02/26 07:07:41;;;;;;;3.60;3.20;;;4.60;99.90;;;;;;5061532;28;20222;-46
2022/02/26 07:10:09;;;;;;;5.38;3.75;;;4.50;99.90;;;;;;5061309;28;20215;-50
2022/02/26 07:12:37;;;;;;;5.40;3.92;;;4.40;99.90;;;;;;5061886;28;20218;-48
2022/02/26 07:15:05;;;;;;;4.72;3.13;;;4.50;99.90;;;;;;5061442;28;20225;-50
2022/02/26 07:17:33;;;;;;;2.92;2.65;;;4.30;99.90;;;;;;5061232;28;20431;-49
2022/02/26 07:20:00;;;;;;;4.18;3.13;;;4.30;99.90;;;;;;5042835;28;20218;-55
2022/02/26 07:22:28;;;;;;;3.35;3.00;;;4.30;99.90;;;;;;5040660;28;20287;-45
2022/02/26 07:24:56;;;;;;;3.40;3.10;;;4.40;99.90;;;;;;5060718;28;20207;-49
2022/02/26 07:27:23;;;;;;;3.63;3.20;;;4.50;99.90;;;;;;5060553;28;20222;-48
2022/02/26 07:29:50;;;;;;;3.92;3.28;;;4.70;99.90;;;;;;5059847;28;20245;-52
2022/02/26 07:32:17;;;;;;;2.63;2.42;;;5.10;99.90;;;;;;5060231;28;20276;-50
2022/02/26 07:34:45;;;;;;;4.13;3.60;;;5.30;99.90;;;;;;5058246;28;20249;-52
2022/02/26 07:37:12;;;;;;;4.32;3.25;;;5.50;99.90;;;;;;5060699;28;20219;-50
2022/02/26 07:39:40;;;;;;;3.55;3.20;;;5.60;99.90;;;;;;5061027;28;20261;-45
2022/02/26 07:42:08;;;;;;;5.30;4.10;;;5.60;99.90;;;;;;5060640;28;20403;-53
2022/02/26 07:44:35;;;;;;;4.68;3.97;;;5.80;99.90;;;;;;5060613;28;20274;-50
2022/02/26 07:47:03;;;;;;;5.00;4.10;;;5.80;99.90;;;;;;5059774;28;20219;-49
2022/02/26 07:49:30;;;;;;;6.00;3.90;;;6.00;99.90;;;;;;5060296;28;20203;-47
2022/02/26 07:51:58;;;;;;;4.45;3.40;;;6.00;99.90;;;;;;5060430;28;20223;-46
2022/02/26 07:54:25;;;;;;;3.70;2.92;;;5.90;99.90;;;;;;5039974;28;20218;-45
2022/02/26 07:56:52;;;;;;;5.90;2.45;;;5.90;99.90;;;;;;5060076;28;20436;-45
2022/02/26 07:59:20;;;;;;;5.82;3.20;;;5.90;99.90;;;;;;5059546;28;20261;-53
2022/02/26 08:01:51;;;;;;;5.40;2.85;;;5.80;99.90;;;;;;5060092;28;20273;-47
2022/02/26 08:04:18;;;;;;;1.90;1.80;;;5.80;99.90;;;;;;5060056;28;20214;-50
2022/02/26 08:06:45;;;;;;;2.80;2.55;;;5.50;99.90;;;;;;5049560;28;20223;-50
2022/02/26 08:09:13;;;;;;;3.33;2.42;;;5.40;99.90;;;;;;5060722;28;20210;-52
2022/02/26 08:11:40;;;;;;;2.53;2.33;;;5.40;99.90;;;;;;5060574;28;20313;-52
2022/02/26 08:14:07;;;;;;;2.40;2.20;;;5.30;99.90;;;;;;5042761;28;20206;-46
2022/02/26 08:16:35;;;;;;;2.30;1.98;;;5.30;99.90;;;;;;5060901;28;20216;-46
2022/02/26 08:19:03;;;;;;;2.85;2.15;;;5.30;99.90;;;;;;5060325;28;20210;-49
2022/02/26 08:21:35;;;;;;;2.15;1.92;;;5.40;99.90;;;;;;5060153;28;20226;-47
2022/02/26 08:24:02;;;;;;;2.72;1.80;;;5.40;99.90;;;;;;5060120;28;20226;-48
2022/02/26 08:26:29;;;;;;;2.10;1.90;;;5.30;99.90;;;;;;5060532;28;20245;-46
2022/02/26 08:28:58;;;;;;;1.70;1.60;;;5.20;99.90;;;;;;5061665;28;20214;-48
2022/02/26 08:31:25;;;;;;;2.10;1.85;;;5.00;99.90;;;;;;5063390;28;20215;-46
2022/02/26 08:33:52;;;;;;;2.60;2.17;;;5.00;99.90;;;;;;5066087;28;20196;-44
2022/02/26 08:36:20;;;;;;;2.33;1.58;;;5.10;99.90;;;;;;5064564;28;20199;-50
2022/02/26 08:38:47;;;;;;;1.50;1.40;;;5.00;99.90;;;;;;5059495;28;20203;-53
2022/02/26 08:41:14;;;;;;;1.40;1.30;;;5.00;99.90;;;;;;5059715;28;20269;-46
2022/02/26 08:43:41;;;;;;;2.97;1.73;;;4.90;99.90;;;;;;5059892;28;20315;-54
2022/02/26 08:46:08;;;;;;;3.88;2.67;;;4.80;99.90;;;;;;5060382;28;20500;-46
2022/02/26 08:48:36;;;;;;;2.20;2.00;;;4.90;99.90;;;;;;5060373;28;20239;-46
2022/02/26 08:51:03;;;;;;;3.25;2.40;;;5.00;99.90;;;;;;5060520;28;20484;-54
2022/02/26 08:53:31;;;;;;;3.33;2.90;;;5.10;99.90;;;;;;5060667;28;20209;-51
2022/02/26 08:55:58;;;;;;;2.17;1.85;;;5.30;99.90;;;;;;5062530;28;20510;-47
2022/02/26 08:58:25;;;;;;;4.78;2.85;;;5.40;99.90;;;;;;5063391;28;20238;-50
2022/02/26 09:00:53;;;;;;;3.85;2.85;;;5.50;99.90;;;;;;5059024;28;20239;-50
2022/02/26 09:03:20;;;;;;;4.30;2.35;;;5.50;99.90;;;;;;5056544;28;20227;-48
2022/02/26 09:05:50;;;;;;;2.63;2.17;;;5.70;99.90;;;;;;5040049;28;20433;-51
2022/02/26 09:08:18;;;;;;;2.55;2.35;;;6.20;99.90;;;;;;5058883;28;20309;-46
2022/02/26 09:10:45;;;;;;;6.72;2.60;;;6.80;99.90;;;;;;5058442;28;20396;-47
2022/02/26 09:13:13;;;;;;;2.15;2.05;;;7.20;99.90;;;;;;5056297;28;20266;-47
2022/02/26 09:15:40;;;;;;;5.47;2.90;;;7.40;99.90;;;;;;5047071;28;20203;-46
2022/02/26 09:18:10;;;;;;;3.13;2.83;;;7.50;99.90;;;;;;5056458;28;20191;-47
2022/02/26 09:20:38;;;;;;;3.38;2.80;;;7.10;99.90;;;;;;5055960;28;20207;-49
2022/02/26 09:23:05;;;;;;;4.25;2.60;;;6.90;99.90;;;;;;5058802;28;20339;-46
2022/02/26 09:25:32;;;;;;;4.57;3.47;;;6.70;99.90;;;;;;5059488;28;20215;-48
2022/02/26 09:28:00;;;;;;;8.75;5.00;;;6.40;99.90;;;;;;5059328;28;20230;-45
2022/02/26 09:30:28;;;;;;;5.10;4.03;;;6.10;99.90;;;;;;5041902;28;20234;-45
2022/02/26 09:32:55;;;;;;;6.20;3.25;;;5.80;99.90;;;;;;5059287;28;20285;-46
2022/02/26 09:35:22;;;;;;;4.63;2.95;;;5.20;99.90;;;;;;5059527;28;20554;-51
2022/02/26 09:37:52;;;;;;;7.80;2.95;;;4.70;99.90;;;;;;5059476;28;20254;-46
2022/02/26 09:40:23;;;;;;;4.35;3.65;;;4.50;99.90;;;;;;5059171;28;20213;-50
2022/02/26 09:42:51;;;;;;;7.22;4.07;;;4.40;99.90;;;;;;5058418;28;20202;-48
2022/02/26 09:45:18;;;;;;;3.17;2.88;;;4.30;99.90;;;;;;5059044;28;20248;-49
2022/02/26 09:47:45;;;;;;;5.93;3.67;;;4.30;99.90;;;;;;5058995;28;20318;-53
2022/02/26 09:50:13;;;;;;;4.85;3.20;;;4.30;99.90;;;;;;5058182;28;20233;-50
2022/02/26 09:52:42;;;;;;;8.10;4.15;;;4.70;99.90;;;;;;5059520;28;20272;-49
2022/02/26 09:55:09;;;;;;;4.65;3.25;;;4.50;99.90;;;;;;5062310;28;20198;-51
2022/02/26 09:57:37;;;;;;;4.50;3.88;;;4.60;99.90;;;;;;5063250;28;20217;-48
2022/02/26 10:00:10;;;;;;;3.72;3.40;;;4.40;99.90;;;;;;5062585;28;20328;-52
2022/02/26 10:02:41;;;;;;;4.88;3.03;;;4.50;99.90;;;;;;5063023;28;20225;-51
2022/02/26 10:05:10;;;;;;;7.13;5.93;;;4.80;99.90;;;;;;5062957;28;20572;-49
2022/02/26 10:07:39;;;;;;;8.15;4.72;;;4.90;99.90;;;;;;5062953;28;20216;-47
2022/02/26 10:10:16;;;;;;;8.95;4.82;;;4.90;99.90;;;;;;5062381;28;20422;-52
2022/02/26 10:12:44;;;;;;;6.00;4.32;;;4.60;99.90;;;;;;5062730;28;20545;-47
2022/02/26 10:15:38;;;;;;;8.88;4.95;;;4.70;99.90;;;;;;5062882;28;20429;-53
2022/02/26 10:18:12;;;;;;;11.93;4.82;;;4.70;99.90;;;;;;5062404;28;20367;-49
2022/02/26 10:20:44;;;;;;;15.25;6.90;;;4.60;99.90;;;;;;5061751;28;20201;-46
2022/02/26 10:23:15;;;;;;;5.70;4.88;;;4.80;99.90;;;;;;5062103;28;20516;-48
2022/02/26 10:25:42;;;;;;;5.85;5.05;;;4.90;99.90;;;;;;5062409;28;20513;-55
2022/02/26 10:28:13;;;;;;;8.85;4.43;;;5.20;99.90;;;;;;5061760;28;20245;-48
2022/02/26 10:30:44;;;;;;;11.25;5.43;;;5.40;99.90;;;;;;5050841;28;20219;-48
2022/02/26 10:33:17;;;;;;;6.95;4.95;;;5.50;99.90;;;;;;5044413;28;20252;-49
2022/02/26 10:35:56;;;;;;;7.38;5.40;;;5.40;99.90;;;;;;5061426;28;20200;-51
2022/02/26 10:38:27;;;;;;;13.75;6.10;;;5.70;99.90;;;;;;5062068;28;20208;-49
2022/02/26 10:41:06;;;;;;;10.30;5.57;;;5.90;99.90;;;;;;5054226;28;20421;-49
2022/02/26 10:43:40;;;;;;;11.38;6.32;;;6.50;99.90;;;;;;5061956;28;20505;-51
2022/02/26 10:46:16;;;;;;;9.23;6.30;;;6.90;99.90;;;;;;5061764;28;20198;-48
2022/02/26 10:48:44;;;;;;;8.20;5.75;;;7.00;99.90;;;;;;5058169;28;20426;-51
2022/02/26 10:51:16;;;;;;;8.68;5.50;;;7.20;99.90;;;;;;5061104;28;20335;-48
2022/02/26 10:53:44;;;;;;;6.82;5.45;;;7.50;99.90;;;;;;5061898;28;20200;-52
2022/02/26 10:56:12;;;;;;;6.65;4.10;;;7.50;99.90;;;;;;5061437;28;20195;-49
2022/02/26 10:58:41;;;;;;;10.60;5.22;;;6.70;99.90;;;;;;5061954;28;20195;-53
2022/02/26 11:01:11;;;;;;;8.27;5.30;;;6.50;99.90;;;;;;5062229;28;20227;-52
2022/02/26 11:03:42;;;;;;;8.70;5.82;;;6.50;99.90;;;;;;5062174;28;20203;-45
2022/02/26 11:06:11;;;;;;;4.40;3.97;;;6.90;99.90;;;;;;5061919;28;20285;-48
2022/02/26 11:08:42;;;;;;;8.43;4.38;;;7.10;99.90;;;;;;5061663;28;20463;-49
2022/02/26 11:11:10;;;;;;;6.40;4.63;;;7.20;99.90;;;;;;5061806;28;20215;-49
2022/02/26 11:13:38;;;;;;;5.22;4.63;;;7.20;99.90;;;;;;5062040;28;20425;-52
2022/02/26 11:16:06;;;;;;;5.28;4.78;;;7.10;99.90;;;;;;5061410;28;20266;-48
2022/02/26 11:18:46;;;;;;;7.93;5.10;;;6.60;99.90;;;;;;5061368;28;20585;-47
2022/02/26 11:21:15;;;;;;;6.13;5.38;;;6.80;99.90;;;;;;5061130;28;20576;-43
2022/02/26 11:23:48;;;;;;;5.68;5.13;;;6.90;99.90;;;;;;5061719;28;20199;-46
2022/02/26 11:26:21;;;;;;;8.15;3.78;;;7.00;99.90;;;;;;5061367;28;20222;-45
2022/02/26 11:28:58;;;;;;;4.95;4.00;;;6.90;99.90;;;;;;5061142;28;20403;-50
2022/02/26 11:31:37;;;;;;;4.20;3.80;;;7.30;99.90;;;;;;5061034;28;20273;-47
2022/02/26 11:34:05;;;;;;;7.63;3.83;;;7.30;99.90;;;;;;5054834;28;20289;-51
2022/02/26 11:36:47;;;;;;;6.10;4.40;;;7.20;99.90;;;;;;5059809;28;20199;-46
2022/02/26 11:39:28;;;;;;;6.00;4.00;;;7.70;99.90;;;;;;5040975;28;20200;-52
2022/02/26 11:42:16;;;;;;;8.90;4.43;;;8.00;99.90;;;;;;5040687;28;20255;-45
2022/02/26 11:45:00;;;;;;;4.20;3.40;;;8.30;99.90;;;;;;5051190;28;20195;-55
2022/02/26 11:47:43;;;;;;;6.97;4.97;;;8.10;99.90;;;;;;5061047;28;20231;-48
2022/02/26 11:50:22;;;;;;;7.38;3.47;;;7.90;99.90;;;;;;5046213;28;20409;-48
2022/02/26 11:53:14;;;;;;;12.90;7.80;;;7.30;99.90;;;;;;5064417;28;20202;-51
2022/02/26 11:55:53;;;;;;;9.18;6.55;;;7.20;99.90;;;;;;5057420;28;20192;-46
2022/02/26 11:58:33;;;;;;;4.85;4.43;;;7.30;99.90;;;;;;5058905;28;20259;-51
2022/02/26 12:01:08;;;;;;;7.38;3.65;;;7.50;99.90;;;;;;5059348;28;20234;-47
2022/02/26 12:03:41;;;;;;;5.70;5.10;;;7.50;99.90;;;;;;5060110;28;20206;-49
2022/02/26 12:06:08;;;;;;;6.63;5.85;;;7.30;99.90;;;;;;5062388;28;20582;-48
2022/02/26 12:08:37;;;;;;;11.98;7.22;;;7.30;99.90;;;;;;5061437;28;20223;-44
2022/02/26 12:11:09;;;;;;;6.72;3.80;;;7.60;99.90;;;;;;5059830;28;20238;-51
2022/02/26 12:13:38;;;;;;;5.40;4.40;;;7.70;99.90;;;;;;5060048;28;20200;-47
2022/02/26 12:16:22;;;;;;;6.20;4.20;;;8.10;99.90;;;;;;5058708;28;20196;-50
2022/02/26 12:18:58;;;;;;;8.57;4.80;;;8.30;99.90;;;;;;5060171;28;20250;-52
2022/02/26 12:21:38;;;;;;;6.20;4.20;;;8.50;99.90;;;;;;5060033;28;20246;-46
2022/02/26 12:24:11;;;;;;;5.63;4.93;;;8.70;99.90;;;;;;5042344;28;20203;-52
2022/02/26 12:26:57;;;;;;;11.45;4.80;;;9.00;99.90;;;;;;5059780;28;20271;-48
2022/02/26 12:29:32;;;;;;;8.90;4.97;;;9.40;99.90;;;;;;5059795;28;20239;-49
2022/02/26 12:32:09;;;;;;;7.20;4.50;;;9.80;99.90;;;;;;5059337;28;20258;-49
2022/02/26 12:35:06;;;;;;;5.68;4.45;;;9.70;99.90;;;;;;5059737;28;20203;-51
2022/02/26 12:37:41;;;;;;;7.47;4.95;;;9.40;99.90;;;;;;5058965;28;20206;-48
2022/02/26 12:40:21;;;;;;;11.68;6.28;;;9.50;99.90;;;;;;5058002;28;20280;-47
2022/02/26 12:42:50;;;;;;;6.88;4.45;;;9.60;99.90;;;;;;5059297;28;20242;-46
2022/02/26 12:45:19;;;;;;;4.95;4.22;;;9.30;99.90;;;;;;5059652;28;20562;-48
2022/02/26 12:47:46;;;;;;;6.57;5.10;;;9.00;99.90;;;;;;5059676;28;20291;-46
2022/02/26 12:50:16;;;;;;;7.25;4.72;;;8.60;99.90;;;;;;5059221;28;20196;-52
2022/02/26 12:52:44;;;;;;;6.40;4.85;;;8.30;99.90;;;;;;5059854;28;20454;-46
2022/02/26 12:55:15;;;;;;;6.40;5.63;;;8.00;99.90;;;;;;5059246;28;20306;-46
2022/02/26 12:57:44;;;;;;;6.38;3.95;;;7.70;99.90;;;;;;5059977;28;20451;-49
2022/02/26 13:00:19;;;;;;;6.00;5.20;;;7.40;99.90;;;;;;5060014;28;20196;-44
2022/02/26 13:03:00;;;;;;;4.72;3.75;;;7.00;99.90;;;;;;5060121;28;20215;-44
2022/02/26 13:05:29;;;;;;;5.72;4.20;;;7.00;99.90;;;;;;5059111;28;20195;-45